sensor_id;sensor_type;location;lat;lon;timestamp;pressure;altitude;pressure_sealevel;temperature;humidity
9764;BME280;4921;43.214;27.936;2022-08-06T00:00:20;100620.84;;;25.72;100.00
9764;BME280;4921;43.214;27.936;2022-08-06T00:02:47;100616.31;;;25.73;100.00
9764;BME280;4921;43.214;27.936;2022-08-06T00:05:14;100621.69;;;25.73;100.00
9764;BME280;4921;43.214;27.936;2022-08-06T00:07:42;100610.50;;;25.69;100.00
9764;BME280;4921;43.214;27.936;2022-08-06T00:10:09;100615.69;;;25.70;100.00
9764;BME280;4921;43.214;27.936;2022-08-06T00:12:36;100614.03;;;25.69;100.00
9764;BME280;4921;43.214;27.936;2022-08-06T00:15:05;100603.31;;;25.63;100.00
9764;BME280;4921;43.214;27.936;2022-08-06T00:17:32;100611.56;;;25.68;100.00
9764;BME280;4921;43.214;27.936;2022-08-06T00:19:59;100607.22;;;25.67;100.00
9764;BME280;4921;43.214;27.936;2022-08-06T00:22:27;100611.75;;;25.66;100.00
9764;BME280;4921;43.214;27.936;2022-08-06T00:24:56;100616.34;;;25.66;100.00
9764;BME280;4921;43.214;27.936;2022-08-06T00:27:23;100609.91;;;25.67;100.00
9764;BME280;4921;43.214;27.936;2022-08-06T00:29:50;100610.97;;;25.66;100.00
9764;BME280;4921;43.214;27.936;2022-08-06T00:32:17;100603.91;;;25.65;100.00
9764;BME280;4921;43.214;27.936;2022-08-06T00:34:43;100602.88;;;25.66;100.00
9764;BME280;4921;43.214;27.936;2022-08-06T00:37:10;100593.97;;;25.65;100.00
9764;BME280;4921;43.214;27.936;2022-08-06T00:39:37;100607.44;;;25.65;100.00
9764;BME280;4921;43.214;27.936;2022-08-06T00:42:06;100609.31;;;25.65;100.00
9764;BME280;4921;43.214;27.936;2022-08-06T00:44:33;100611.16;;;25.64;100.00
9764;BME280;4921;43.214;27.936;2022-08-06T00:47:00;100604.97;;;25.64;100.00
9764;BME280;4921;43.214;27.936;2022-08-06T00:49:27;100603.31;;;25.63;100.00
9764;BME280;4921;43.214;27.936;2022-08-06T00:51:54;100609.53;;;25.63;100.00
9764;BME280;4921;43.214;27.936;2022-08-06T00:54:22;100608.69;;;25.63;100.00
9764;BME280;4921;43.214;27.936;2022-08-06T00:56:49;100605.16;;;25.62;100.00
9764;BME280;4921;43.214;27.936;2022-08-06T00:59:17;100606.44;;;25.60;100.00
9764;BME280;4921;43.214;27.936;2022-08-06T01:01:44;100612.66;;;25.60;100.00
9764;BME280;4921;43.214;27.936;2022-08-06T01:04:11;100607.50;;;25.59;100.00
9764;BME280;4921;43.214;27.936;2022-08-06T01:06:38;100608.75;;;25.56;100.00
9764;BME280;4921;43.214;27.936;2022-08-06T01:09:05;100611.44;;;25.56;100.00
9764;BME280;4921;43.214;27.936;2022-08-06T01:11:32;100604.63;;;25.54;100.00
9764;BME280;4921;43.214;27.936;2022-08-06T01:13:59;100603.78;;;25.53;100.00
9764;BME280;4921;43.214;27.936;2022-08-06T01:16:33;100601.56;;;25.50;100.00
9764;BME280;4921;43.214;27.936;2022-08-06T01:19:18;100600.94;;;25.48;100.00
9764;BME280;4921;43.214;27.936;2022-08-06T01:21:55;100595.38;;;25.43;100.00
9764;BME280;4921;43.214;27.936;2022-08-06T01:24:36;100597.44;;;25.41;100.00
9764;BME280;4921;43.214;27.936;2022-08-06T01:27:33;100593.78;;;25.36;100.00
9764;BME280;4921;43.214;27.936;2022-08-06T01:30:07;100593.16;;;25.34;100.00
9764;BME280;4921;43.214;27.936;2022-08-06T01:32:38;100597.72;;;25.33;100.00
9764;BME280;4921;43.214;27.936;2022-08-06T01:35:10;100596.06;;;25.32;100.00
9764;BME280;4921;43.214;27.936;2022-08-06T01:37:42;100596.06;;;25.32;100.00
9764;BME280;4921;43.214;27.936;2022-08-06T01:40:16;100594.19;;;25.33;100.00
9764;BME280;4921;43.214;27.936;2022-08-06T01:42:45;100591.72;;;25.31;100.00
9764;BME280;4921;43.214;27.936;2022-08-06T01:45:15;100598.16;;;25.30;100.00
9764;BME280;4921;43.214;27.936;2022-08-06T01:47:47;100586.53;;;25.30;100.00
9764;BME280;4921;43.214;27.936;2022-08-06T01:50:18;100595.44;;;25.30;100.00
9764;BME280;4921;43.214;27.936;2022-08-06T01:52:48;100590.13;;;25.24;100.00
9764;BME280;4921;43.214;27.936;2022-08-06T01:55:16;100591.78;;;25.25;100.00
9764;BME280;4921;43.214;27.936;2022-08-06T01:57:50;100591.78;;;25.25;100.00
9764;BME280;4921;43.214;27.936;2022-08-06T02:00:18;100589.75;;;25.20;100.00
9764;BME280;4921;43.214;27.936;2022-08-06T02:02:46;100589.28;;;25.23;100.00
9764;BME280;4921;43.214;27.936;2022-08-06T02:05:15;100590.94;;;25.24;100.00
9764;BME280;4921;43.214;27.936;2022-08-06T02:07:47;100594.66;;;25.23;100.00
9764;BME280;4921;43.214;27.936;2022-08-06T02:10:17;100583.91;;;25.23;100.00
9764;BME280;4921;43.214;27.936;2022-08-06T02:12:48;100591.81;;;25.18;100.00
9764;BME280;4921;43.214;27.936;2022-08-06T02:15:18;100590.16;;;25.17;100.00
9764;BME280;4921;43.214;27.936;2022-08-06T02:17:50;100588.06;;;25.19;100.00
9764;BME280;4921;43.214;27.936;2022-08-06T02:20:27;100589.13;;;25.18;100.00
9764;BME280;4921;43.214;27.936;2022-08-06T02:22:56;100587.09;;;25.14;100.00
9764;BME280;4921;43.214;27.936;2022-08-06T02:25:25;100590.81;;;25.13;100.00
9764;BME280;4921;43.214;27.936;2022-08-06T02:27:56;100582.53;;;25.14;100.00
9764;BME280;4921;43.214;27.936;2022-08-06T02:30:25;100583.56;;;25.13;100.00
9764;BME280;4921;43.214;27.936;2022-08-06T02:32:54;100596.00;;;25.14;100.00
9764;BME280;4921;43.214;27.936;2022-08-06T02:35:22;100582.72;;;25.13;100.00
9764;BME280;4921;43.214;27.936;2022-08-06T02:37:51;100592.88;;;25.11;100.00
9764;BME280;4921;43.214;27.936;2022-08-06T02:40:24;100584.44;;;25.07;100.00
9764;BME280;4921;43.214;27.936;2022-08-06T02:42:58;100594.16;;;25.08;100.00
9764;BME280;4921;43.214;27.936;2022-08-06T02:45:30;100581.75;;;25.07;100.00
9764;BME280;4921;43.214;27.936;2022-08-06T02:48:06;100588.59;;;25.03;100.00
9764;BME280;4921;43.214;27.936;2022-08-06T02:50:35;100594.00;;;25.03;100.00
9764;BME280;4921;43.214;27.936;2022-08-06T02:53:06;100601.66;;;24.99;100.00
9764;BME280;4921;43.214;27.936;2022-08-06T02:55:37;100597.31;;;24.98;100.00
9764;BME280;4921;43.214;27.936;2022-08-06T02:58:11;100600.00;;;24.98;100.00
9764;BME280;4921;43.214;27.936;2022-08-06T03:00:41;100600.44;;;24.95;100.00
9764;BME280;4921;43.214;27.936;2022-08-06T03:03:09;100608.75;;;24.94;100.00
9764;BME280;4921;43.214;27.936;2022-08-06T03:05:40;100602.53;;;24.93;100.00
9764;BME280;4921;43.214;27.936;2022-08-06T03:08:09;100606.03;;;24.94;100.00
9764;BME280;4921;43.214;27.936;2022-08-06T03:10:37;100606.09;;;24.87;100.00
9764;BME280;4921;43.214;27.936;2022-08-06T03:13:04;100616.84;;;24.87;100.00
9764;BME280;4921;43.214;27.936;2022-08-06T03:15:35;100605.84;;;24.89;100.00
9764;BME280;4921;43.214;27.936;2022-08-06T03:18:03;100604.59;;;24.91;100.00
9764;BME280;4921;43.214;27.936;2022-08-06T03:20:32;100608.97;;;24.92;100.00
9764;BME280;4921;43.214;27.936;2022-08-06T03:23:04;100617.66;;;24.94;100.00
9764;BME280;4921;43.214;27.936;2022-08-06T03:25:35;100602.13;;;24.90;100.00
9764;BME280;4921;43.214;27.936;2022-08-06T03:28:03;100606.69;;;24.89;100.00
9764;BME280;4921;43.214;27.936;2022-08-06T03:30:30;100604.59;;;24.91;100.00
9764;BME280;4921;43.214;27.936;2022-08-06T03:33:01;100601.91;;;24.91;100.00
9764;BME280;4921;43.214;27.936;2022-08-06T03:35:28;100605.44;;;24.92;100.00
9764;BME280;4921;43.214;27.936;2022-08-06T03:37:56;100614.34;;;24.92;100.00
9764;BME280;4921;43.214;27.936;2022-08-06T03:40:25;100602.75;;;24.92;100.00
9764;BME280;4921;43.214;27.936;2022-08-06T03:42:52;100615.97;;;24.93;100.00
9764;BME280;4921;43.214;27.936;2022-08-06T03:45:19;100615.78;;;24.95;100.00
9764;BME280;4921;43.214;27.936;2022-08-06T03:47:52;100612.25;;;24.94;100.00
9764;BME280;4921;43.214;27.936;2022-08-06T03:50:25;100616.59;;;24.95;100.00
9764;BME280;4921;43.214;27.936;2022-08-06T03:52:59;100612.88;;;24.96;100.00
9764;BME280;4921;43.214;27.936;2022-08-06T03:55:30;100612.03;;;24.96;100.00
9764;BME280;4921;43.214;27.936;2022-08-06T03:58:01;100609.94;;;24.98;100.00
9764;BME280;4921;43.214;27.936;2022-08-06T04:00:32;100619.69;;;24.99;100.00
9764;BME280;4921;43.214;27.936;2022-08-06T04:03:01;100615.09;;;24.99;100.00
9764;BME280;4921;43.214;27.936;2022-08-06T04:05:32;100610.38;;;25.02;100.00
9764;BME280;4921;43.214;27.936;2022-08-06T04:08:03;100614.47;;;25.04;100.00
9764;BME280;4921;43.214;27.936;2022-08-06T04:10:33;100617.75;;;25.06;100.00
9764;BME280;4921;43.214;27.936;2022-08-06T04:13:04;100613.22;;;25.07;100.00
9764;BME280;4921;43.214;27.936;2022-08-06T04:15:32;100612.78;;;25.10;100.00
9764;BME280;4921;43.214;27.936;2022-08-06T04:17:59;100612.34;;;25.13;100.00
9764;BME280;4921;43.214;27.936;2022-08-06T04:20:27;100603.84;;;25.16;100.00
9764;BME280;4921;43.214;27.936;2022-08-06T04:22:58;100612.31;;;25.19;100.00
9764;BME280;4921;43.214;27.936;2022-08-06T04:25:27;100607.09;;;25.24;100.00
9764;BME280;4921;43.214;27.936;2022-08-06T04:27:55;100606.69;;;25.27;100.00
9764;BME280;4921;43.214;27.936;2022-08-06T04:30:24;100602.09;;;25.28;100.00
9764;BME280;4921;43.214;27.936;2022-08-06T04:32:53;100605.78;;;25.33;100.00
9764;BME280;4921;43.214;27.936;2022-08-06T04:35:21;100599.97;;;25.36;100.00
9764;BME280;4921;43.214;27.936;2022-08-06T04:37:48;100613.59;;;25.41;100.00
9764;BME280;4921;43.214;27.936;2022-08-06T04:40:17;100612.97;;;25.46;100.00
9764;BME280;4921;43.214;27.936;2022-08-06T04:42:44;100611.72;;;25.48;100.00
9764;BME280;4921;43.214;27.936;2022-08-06T04:45:11;100598.63;;;25.52;100.00
9764;BME280;4921;43.214;27.936;2022-08-06T04:47:38;100611.44;;;25.56;100.00
9764;BME280;4921;43.214;27.936;2022-08-06T04:50:06;100606.44;;;25.60;100.00
9764;BME280;4921;43.214;27.936;2022-08-06T04:52:33;100608.47;;;25.64;100.00
9764;BME280;4921;43.214;27.936;2022-08-06T04:55:00;100616.13;;;25.67;100.00
9764;BME280;4921;43.214;27.936;2022-08-06T04:57:29;100620.84;;;25.72;100.00
9764;BME280;4921;43.214;27.936;2022-08-06T04:59:56;100609.63;;;25.75;100.00
9764;BME280;4921;43.214;27.936;2022-08-06T05:02:22;100617.88;;;25.80;100.00
9764;BME280;4921;43.214;27.936;2022-08-06T05:04:49;100614.53;;;25.85;100.00
9764;BME280;4921;43.214;27.936;2022-08-06T05:07:23;100609.31;;;25.90;100.00
9764;BME280;4921;43.214;27.936;2022-08-06T05:09:51;100619.41;;;25.94;100.00
9764;BME280;4921;43.214;27.936;2022-08-06T05:12:23;100616.84;;;25.99;100.00
9764;BME280;4921;43.214;27.936;2022-08-06T05:14:55;100617.84;;;26.05;99.94
9764;BME280;4921;43.214;27.936;2022-08-06T05:17:29;100619.94;;;26.09;99.56
9764;BME280;4921;43.214;27.936;2022-08-06T05:19:59;100617.81;;;26.11;99.76
9764;BME280;4921;43.214;27.936;2022-08-06T05:22:27;100621.50;;;26.17;99.03
9764;BME280;4921;43.214;27.936;2022-08-06T05:24:56;100619.75;;;26.22;98.29
9764;BME280;4921;43.214;27.936;2022-08-06T05:27:23;100616.41;;;26.27;98.36
9764;BME280;4921;43.214;27.936;2022-08-06T05:29:50;100623.22;;;26.29;98.68
9764;BME280;4921;43.214;27.936;2022-08-06T05:32:19;100617.75;;;26.36;98.90
9764;BME280;4921;43.214;27.936;2022-08-06T05:34:46;100625.16;;;26.40;98.27
9764;BME280;4921;43.214;27.936;2022-08-06T05:37:13;100621.81;;;26.45;96.98
9764;BME280;4921;43.214;27.936;2022-08-06T05:39:40;100630.84;;;26.51;96.74
9764;BME280;4921;43.214;27.936;2022-08-06T05:42:07;100632.44;;;26.58;94.64
9764;BME280;4921;43.214;27.936;2022-08-06T05:44:34;100632.59;;;26.63;94.08
9764;BME280;4921;43.214;27.936;2022-08-06T05:49:54;100630.22;;;26.73;90.96
9764;BME280;4921;43.214;27.936;2022-08-06T05:52:24;100633.28;;;26.77;93.15
9764;BME280;4921;43.214;27.936;2022-08-06T05:54:55;100640.25;;;26.84;93.72
9764;BME280;4921;43.214;27.936;2022-08-06T05:57:28;100637.47;;;26.91;94.40
9764;BME280;4921;43.214;27.936;2022-08-06T06:00:01;100630.19;;;26.91;93.18
9764;BME280;4921;43.214;27.936;2022-08-06T06:02:33;100622.13;;;27.03;91.98
9764;BME280;4921;43.214;27.936;2022-08-06T06:05:02;100629.63;;;27.01;94.00
9764;BME280;4921;43.214;27.936;2022-08-06T06:07:29;100625.56;;;27.10;95.31
9764;BME280;4921;43.214;27.936;2022-08-06T06:09:57;100622.75;;;27.16;95.43
9764;BME280;4921;43.214;27.936;2022-08-06T06:12:24;100627.00;;;27.24;95.19
9764;BME280;4921;43.214;27.936;2022-08-06T06:14:53;100627.16;;;27.29;93.99
9764;BME280;4921;43.214;27.936;2022-08-06T06:17:30;100618.59;;;27.32;94.63
9764;BME280;4921;43.214;27.936;2022-08-06T06:20:10;100620.75;;;27.42;92.59
9764;BME280;4921;43.214;27.936;2022-08-06T06:22:44;100623.00;;;27.45;91.90
9764;BME280;4921;43.214;27.936;2022-08-06T06:25:18;100613.22;;;27.44;92.50
9764;BME280;4921;43.214;27.936;2022-08-06T06:27:56;100621.72;;;27.47;93.03
9764;BME280;4921;43.214;27.936;2022-08-06T06:30:28;100619.13;;;27.52;92.48
9764;BME280;4921;43.214;27.936;2022-08-06T06:33:04;100618.19;;;27.47;92.08
9764;BME280;4921;43.214;27.936;2022-08-06T06:35:50;100621.59;;;27.54;91.93
9764;BME280;4921;43.214;27.936;2022-08-06T06:38:25;100617.13;;;27.59;90.32
9764;BME280;4921;43.214;27.936;2022-08-06T06:41:00;100621.41;;;27.67;89.83
9764;BME280;4921;43.214;27.936;2022-08-06T06:43:34;100612.31;;;27.61;90.15
9764;BME280;4921;43.214;27.936;2022-08-06T06:46:06;100620.78;;;27.65;91.30
9764;BME280;4921;43.214;27.936;2022-08-06T06:48:40;100617.25;;;27.76;88.76
9764;BME280;4921;43.214;27.936;2022-08-06T06:51:13;100621.38;;;27.78;89.13
9764;BME280;4921;43.214;27.936;2022-08-06T06:53:45;100613.63;;;27.70;91.08
9764;BME280;4921;43.214;27.936;2022-08-06T06:56:16;100622.44;;;27.66;93.49
9764;BME280;4921;43.214;27.936;2022-08-06T06:58:48;100627.28;;;27.75;93.54
9764;BME280;4921;43.214;27.936;2022-08-06T07:01:18;100625.25;;;27.82;92.70
9764;BME280;4921;43.214;27.936;2022-08-06T07:03:46;100625.63;;;27.86;93.87
9764;BME280;4921;43.214;27.936;2022-08-06T07:06:16;100622.22;;;27.79;93.00
9764;BME280;4921;43.214;27.936;2022-08-06T07:08:46;100622.66;;;27.76;93.64
9764;BME280;4921;43.214;27.936;2022-08-06T07:11:17;100614.22;;;27.84;91.34
9764;BME280;4921;43.214;27.936;2022-08-06T07:13:46;100618.22;;;27.93;90.51
9764;BME280;4921;43.214;27.936;2022-08-06T07:16:20;100626.47;;;27.98;86.36
9764;BME280;4921;43.214;27.936;2022-08-06T07:18:49;100616.25;;;28.12;85.07
9764;BME280;4921;43.214;27.936;2022-08-06T07:21:20;100610.47;;;28.08;80.58
9764;BME280;4921;43.214;27.936;2022-08-06T07:23:50;100617.19;;;28.17;82.17
9764;BME280;4921;43.214;27.936;2022-08-06T07:26:19;100615.75;;;28.26;82.01
9764;BME280;4921;43.214;27.936;2022-08-06T07:28:47;100610.81;;;28.23;81.15
9764;BME280;4921;43.214;27.936;2022-08-06T07:31:15;100616.09;;;28.30;82.63
9764;BME280;4921;43.214;27.936;2022-08-06T07:33:44;100617.41;;;28.27;85.22
9764;BME280;4921;43.214;27.936;2022-08-06T07:36:13;100620.81;;;28.34;86.91
9764;BME280;4921;43.214;27.936;2022-08-06T07:38:44;100619.19;;;28.22;82.26
9764;BME280;4921;43.214;27.936;2022-08-06T07:41:13;100618.59;;;28.31;83.00
9764;BME280;4921;43.214;27.936;2022-08-06T07:43:43;100620.34;;;28.37;82.75
9764;BME280;4921;43.214;27.936;2022-08-06T07:46:14;100630.41;;;28.53;83.81
9764;BME280;4921;43.214;27.936;2022-08-06T07:48:46;100621.25;;;28.43;83.27
9764;BME280;4921;43.214;27.936;2022-08-06T07:51:14;100622.06;;;28.55;85.32
9764;BME280;4921;43.214;27.936;2022-08-06T07:53:44;100618.19;;;28.51;87.12
9764;BME280;4921;43.214;27.936;2022-08-06T07:56:12;100617.50;;;28.44;86.89
9764;BME280;4921;43.214;27.936;2022-08-06T07:58:39;100624.06;;;28.48;86.26
9764;BME280;4921;43.214;27.936;2022-08-06T08:01:07;100630.78;;;28.45;86.63
9764;BME280;4921;43.214;27.936;2022-08-06T08:03:35;100625.94;;;28.47;85.39
9764;BME280;4921;43.214;27.936;2022-08-06T08:06:21;100626.41;;;28.56;85.36
9764;BME280;4921;43.214;27.936;2022-08-06T08:08:54;100624.16;;;28.64;88.53
9764;BME280;4921;43.214;27.936;2022-08-06T08:11:22;100622.53;;;28.52;93.43
9764;BME280;4921;43.214;27.936;2022-08-06T08:13:52;100620.22;;;28.44;91.73
9764;BME280;4921;43.214;27.936;2022-08-06T08:16:21;100625.84;;;28.42;91.87
9764;BME280;4921;43.214;27.936;2022-08-06T08:18:48;100618.72;;;28.25;90.70
9764;BME280;4921;43.214;27.936;2022-08-06T08:21:15;100622.84;;;28.27;90.22
9764;BME280;4921;43.214;27.936;2022-08-06T08:23:43;100617.75;;;28.31;91.25
9764;BME280;4921;43.214;27.936;2022-08-06T08:26:12;100618.94;;;28.23;90.21
9764;BME280;4921;43.214;27.936;2022-08-06T08:28:39;100621.28;;;28.20;85.14
9764;BME280;4921;43.214;27.936;2022-08-06T08:31:06;100623.66;;;28.16;88.55
9764;BME280;4921;43.214;27.936;2022-08-06T08:33:34;100630.56;;;28.24;89.45
9764;BME280;4921;43.214;27.936;2022-08-06T08:36:01;100629.75;;;28.23;90.86
9764;BME280;4921;43.214;27.936;2022-08-06T08:38:29;100640.47;;;28.07;95.03
9764;BME280;4921;43.214;27.936;2022-08-06T08:40:59;100643.50;;;28.10;90.19
9764;BME280;4921;43.214;27.936;2022-08-06T08:43:32;100640.84;;;27.99;92.70
9764;BME280;4921;43.214;27.936;2022-08-06T08:46:01;100638.66;;;27.89;93.10
9764;BME280;4921;43.214;27.936;2022-08-06T08:48:29;100630.31;;;27.79;91.79
9764;BME280;4921;43.214;27.936;2022-08-06T08:50:59;100634.28;;;27.65;91.08
9764;BME280;4921;43.214;27.936;2022-08-06T08:53:34;100637.38;;;27.68;93.81
9764;BME280;4921;43.214;27.936;2022-08-06T08:56:03;100641.25;;;27.72;92.13
9764;BME280;4921;43.214;27.936;2022-08-06T08:58:32;100639.38;;;27.84;92.44
9764;BME280;4921;43.214;27.936;2022-08-06T09:01:04;100641.69;;;27.69;93.25
9764;BME280;4921;43.214;27.936;2022-08-06T09:03:34;100637.69;;;27.49;94.95
9764;BME280;4921;43.214;27.936;2022-08-06T09:06:02;100641.22;;;27.61;87.97
9764;BME280;4921;43.214;27.936;2022-08-06T09:08:30;100638.47;;;27.38;95.54
9764;BME280;4921;43.214;27.936;2022-08-06T09:10:58;100637.22;;;27.52;89.44
9764;BME280;4921;43.214;27.936;2022-08-06T09:13:26;100650.50;;;27.65;88.71
9764;BME280;4921;43.214;27.936;2022-08-06T09:15:56;100641.13;;;27.67;88.88
9764;BME280;4921;43.214;27.936;2022-08-06T09:18:24;100640.03;;;27.45;95.14
9764;BME280;4921;43.214;27.936;2022-08-06T09:20:51;100635.56;;;27.51;94.83
9764;BME280;4921;43.214;27.936;2022-08-06T09:23:18;100640.19;;;27.62;98.61
9764;BME280;4921;43.214;27.936;2022-08-06T09:25:46;100645.09;;;27.65;100.00
9764;BME280;4921;43.214;27.936;2022-08-06T09:28:30;100644.66;;;27.79;95.91
9764;BME280;4921;43.214;27.936;2022-08-06T09:31:01;100651.97;;;27.90;91.07
9764;BME280;4921;43.214;27.936;2022-08-06T09:33:30;100643.13;;;27.95;89.24
9764;BME280;4921;43.214;27.936;2022-08-06T09:35:59;100642.00;;;28.03;94.11
9764;BME280;4921;43.214;27.936;2022-08-06T09:38:27;100651.50;;;27.93;93.14
9764;BME280;4921;43.214;27.936;2022-08-06T09:41:06;100643.84;;;27.79;97.67
9764;BME280;4921;43.214;27.936;2022-08-06T09:43:34;100643.97;;;27.95;97.84
9764;BME280;4921;43.214;27.936;2022-08-06T09:46:02;100637.19;;;28.16;99.28
9764;BME280;4921;43.214;27.936;2022-08-06T09:48:29;100642.59;;;28.16;97.04
9764;BME280;4921;43.214;27.936;2022-08-06T09:50:56;100640.81;;;28.22;94.83
9764;BME280;4921;43.214;27.936;2022-08-06T09:53:24;100634.00;;;28.19;95.79
9764;BME280;4921;43.214;27.936;2022-08-06T09:55:52;100633.25;;;28.47;96.65
9764;BME280;4921;43.214;27.936;2022-08-06T09:58:31;100640.09;;;28.61;92.69
9764;BME280;4921;43.214;27.936;2022-08-06T10:01:12;100642.31;;;28.41;98.96
9764;BME280;4921;43.214;27.936;2022-08-06T10:03:40;100646.94;;;28.17;100.00
9764;BME280;4921;43.214;27.936;2022-08-06T10:06:09;100649.97;;;28.32;100.00
9764;BME280;4921;43.214;27.936;2022-08-06T10:08:37;100646.22;;;28.33;100.00
9764;BME280;4921;43.214;27.936;2022-08-06T10:11:06;100646.31;;;28.38;100.00
9764;BME280;4921;43.214;27.936;2022-08-06T10:13:34;100652.25;;;28.12;100.00
9764;BME280;4921;43.214;27.936;2022-08-06T10:16:16;100657.38;;;27.90;100.00
9764;BME280;4921;43.214;27.936;2022-08-06T10:18:44;100656.44;;;27.97;100.00
9764;BME280;4921;43.214;27.936;2022-08-06T10:21:14;100659.53;;;28.12;100.00
9764;BME280;4921;43.214;27.936;2022-08-06T10:23:45;100657.78;;;28.06;100.00
9764;BME280;4921;43.214;27.936;2022-08-06T10:26:14;100660.22;;;28.19;100.00
9764;BME280;4921;43.214;27.936;2022-08-06T10:28:46;100660.56;;;28.11;100.00
9764;BME280;4921;43.214;27.936;2022-08-06T10:31:14;100664.44;;;28.15;100.00
9764;BME280;4921;43.214;27.936;2022-08-06T10:33:46;100659.50;;;28.23;100.00
9764;BME280;4921;43.214;27.936;2022-08-06T10:36:14;100650.34;;;28.13;95.73
9764;BME280;4921;43.214;27.936;2022-08-06T10:38:44;100655.84;;;27.94;97.04
9764;BME280;4921;43.214;27.936;2022-08-06T10:41:13;100653.28;;;28.11;97.93
9764;BME280;4921;43.214;27.936;2022-08-06T10:43:41;100661.97;;;28.02;100.00
9764;BME280;4921;43.214;27.936;2022-08-06T10:46:10;100652.69;;;28.09;100.00
9764;BME280;4921;43.214;27.936;2022-08-06T10:48:45;100645.53;;;28.26;100.00
9764;BME280;4921;43.214;27.936;2022-08-06T10:51:13;100649.84;;;28.39;100.00
9764;BME280;4921;43.214;27.936;2022-08-06T10:53:42;100649.16;;;28.32;100.00
9764;BME280;4921;43.214;27.936;2022-08-06T10:56:11;100643.97;;;28.42;100.00
9764;BME280;4921;43.214;27.936;2022-08-06T10:58:39;100645.47;;;28.49;100.00
9764;BME280;4921;43.214;27.936;2022-08-06T11:01:09;100643.84;;;28.60;100.00
9764;BME280;4921;43.214;27.936;2022-08-06T11:03:51;100649.72;;;28.45;100.00
9764;BME280;4921;43.214;27.936;2022-08-06T11:06:42;100643.53;;;28.33;100.00
9764;BME280;4921;43.214;27.936;2022-08-06T11:09:23;100645.84;;;28.41;100.00
9764;BME280;4921;43.214;27.936;2022-08-06T11:12:07;100637.31;;;28.10;100.00
9764;BME280;4921;43.214;27.936;2022-08-06T11:14:39;100644.59;;;28.21;100.00
9764;BME280;4921;43.214;27.936;2022-08-06T11:17:07;100646.59;;;28.14;100.00
9764;BME280;4921;43.214;27.936;2022-08-06T11:19:40;100660.94;;;28.14;100.00
9764;BME280;4921;43.214;27.936;2022-08-06T11:22:08;100649.53;;;28.12;100.00
9764;BME280;4921;43.214;27.936;2022-08-06T11:24:49;100653.66;;;28.03;100.00
9764;BME280;4921;43.214;27.936;2022-08-06T11:27:49;100655.47;;;27.79;100.00
9764;BME280;4921;43.214;27.936;2022-08-06T11:30:16;100658.19;;;27.79;100.00
9764;BME280;4921;43.214;27.936;2022-08-06T11:32:45;100660.28;;;27.89;100.00
9764;BME280;4921;43.214;27.936;2022-08-06T11:35:45;100652.47;;;27.99;100.00
9764;BME280;4921;43.214;27.936;2022-08-06T11:38:16;100648.31;;;27.97;100.00
9764;BME280;4921;43.214;27.936;2022-08-06T11:41:08;100653.47;;;27.75;100.00
9764;BME280;4921;43.214;27.936;2022-08-06T11:43:54;100651.59;;;27.75;100.00
9764;BME280;4921;43.214;27.936;2022-08-06T11:46:31;100655.09;;;27.64;100.00
9764;BME280;4921;43.214;27.936;2022-08-06T11:49:21;100648.19;;;27.68;100.00
9764;BME280;4921;43.214;27.936;2022-08-06T11:51:53;100655.81;;;27.60;100.00
9764;BME280;4921;43.214;27.936;2022-08-06T11:54:22;100643.44;;;27.52;100.00
9764;BME280;4921;43.214;27.936;2022-08-06T11:57:17;100650.41;;;27.83;100.00
9764;BME280;4921;43.214;27.936;2022-08-06T11:59:46;100643.25;;;27.88;100.00
9764;BME280;4921;43.214;27.936;2022-08-06T12:02:16;100638.78;;;27.94;100.00
9764;BME280;4921;43.214;27.936;2022-08-06T12:04:44;100637.38;;;27.91;100.00
9764;BME280;4921;43.214;27.936;2022-08-06T12:07:23;100631.38;;;27.66;100.00
9764;BME280;4921;43.214;27.936;2022-08-06T12:09:58;100632.91;;;27.62;100.00
9764;BME280;4921;43.214;27.936;2022-08-06T12:12:34;100625.09;;;27.54;100.00
9764;BME280;4921;43.214;27.936;2022-08-06T12:15:04;100623.38;;;27.60;100.00
9764;BME280;4921;43.214;27.936;2022-08-06T12:17:58;100624.78;;;27.62;100.00
9764;BME280;4921;43.214;27.936;2022-08-06T12:20:29;100610.94;;;27.70;100.00
9764;BME280;4921;43.214;27.936;2022-08-06T12:22:58;100621.50;;;27.72;100.00
9764;BME280;4921;43.214;27.936;2022-08-06T12:25:30;100617.84;;;27.78;100.00
9764;BME280;4921;43.214;27.936;2022-08-06T12:27:57;100617.50;;;27.74;100.00
9764;BME280;4921;43.214;27.936;2022-08-06T12:30:24;100614.44;;;27.59;100.00
9764;BME280;4921;43.214;27.936;2022-08-06T12:32:59;100619.97;;;27.76;100.00
9764;BME280;4921;43.214;27.936;2022-08-06T12:35:27;100607.16;;;27.71;100.00
9764;BME280;4921;43.214;27.936;2022-08-06T12:37:54;100613.97;;;27.62;100.00
9764;BME280;4921;43.214;27.936;2022-08-06T12:40:22;100613.97;;;27.74;100.00
9764;BME280;4921;43.214;27.936;2022-08-06T12:43:09;100613.50;;;27.88;100.00
9764;BME280;4921;43.214;27.936;2022-08-06T12:45:36;100619.41;;;27.85;100.00
9764;BME280;4921;43.214;27.936;2022-08-06T12:48:08;100606.44;;;27.76;100.00
9764;BME280;4921;43.214;27.936;2022-08-06T12:50:39;100604.94;;;27.91;100.00
9764;BME280;4921;43.214;27.936;2022-08-06T12:53:08;100612.81;;;27.81;100.00
9764;BME280;4921;43.214;27.936;2022-08-06T12:55:44;100612.81;;;27.81;100.00
9764;BME280;4921;43.214;27.936;2022-08-06T12:58:16;100609.88;;;27.94;100.00
9764;BME280;4921;43.214;27.936;2022-08-06T13:00:46;100605.75;;;27.92;100.00
9764;BME280;4921;43.214;27.936;2022-08-06T13:03:15;100603.41;;;27.95;100.00
9764;BME280;4921;43.214;27.936;2022-08-06T13:05:44;100606.59;;;28.04;100.00
9764;BME280;4921;43.214;27.936;2022-08-06T13:08:12;100594.94;;;28.04;100.00
9764;BME280;4921;43.214;27.936;2022-08-06T13:10:47;100595.56;;;28.06;100.00
9764;BME280;4921;43.214;27.936;2022-08-06T13:13:15;100596.94;;;28.08;100.00